KCDW/CDW METAR and TAF weather

Enter ICAO airport designator
Station Type Date Time Source
KCDW METAR 2022/12/05 13:53 UTC NOAA

KCDW 051353Z 00000KT 10SM CLR M01/M04 A3029 RMK AO2 SLP264 T10111039


Station Type Date Time Source
KCDW Decoded METAR 2022/12/05 13:53 UTC NOAA

CALDWELL ESSEX COUNTY AIRPORT , NJ, United States (KCDW) 40-53N 074-17W 64M
Dec 05, 2022 - 08:53 AM EST / 2022.12.05 1353 UTC
Wind: Calm:0
Visibility: 10 mile(s):0
Sky conditions: clear
Temperature: 30.0 F (-1.1 C)
Dew Point: 25.0 F (-3.9 C)
Relative Humidity: 81%
Pressure (altimeter): 30.29 in. Hg (1025 hPa)
ob: KCDW 051353Z 00000KT 10SM CLR M01/M04 A3029 RMK AO2 SLP264 T10111039
cycle: 14

Station Type Date Time Source
KCDW TAF UTC NOAA

Error!

Example: see airport list